Details From LEJR - Jerez
To GMTT - IBN BATOUTA
Flight Number -
Tags generated
Created
Modified
Stats Distance 62 nm / 114 km
Max Altitude 2,700 ft / 823 m
Waypoints 3
Social Downloads 0
Likes 0
Share VATSIM

Download

Looking for another format? Having issues loading an existing format? Contact us
Advertisement - Login to hide

Notes

Basic altitude profile: - Ascent Rate: 2500ft/min - Ascent Speed: 250kts - Cruise Altitude: 35000ft - Cruise Speed: 420kts - Descent Rate: 1500ft/min - Descent Speed: 250kts Options: - Use NATs: yes - Use PACOTS: yes - Use low airways: yes - Use high airways: yes

Route

LEJR AMPIR GMTT

ID Type Via Altitude Latitude Longitude Leg Dist Tot Dist Heading (true) Name
O LEJR APT - 0 ft / 0 m 36.74462˚ -6.06011˚ - 0 nm - Jerez
AMPIR FIX - 2,700 ft / 823 m 35.93750˚ -5.95639˚ 48 nm 48 nm 174° / 174° -
O GMTT APT - 0 ft / 0 m 35.72691˚ -5.91690˚ 12 nm 61 nm 171° / 171° IBN BATOUTA

Altitude Profile

Advertisement - Login to hide

LEJR

Details ICAO LEJR (XRY)
Name Jerez
Region Spain
Timezone Europe/Madrid (UTC+2.0)
Stats Elevation 93 ft / 28 m (AMSL)
Location 36.744622° -6.060110°
Runways 2
Magnetic Variation 1.286° W

METAR

LEJR 260300Z AUTO 11003KT 070V140 9999 NCD 14/13 Q1013

Decode

TAF

TAF LEJR 252300Z 2600/2624 16004KT 9999 FEW030 TX25/2614Z TN13/2606Z BECMG 2610/2613 27010KT BECMG 2620/2622 VRB03KT

Decode

Departure Runways

ID Width Length Bearing (true) Bearing (mag) Surface Threshold Offset Overrun Length
02 148 ft / 45 m 7,559 ft / 2,304 m 21.34° 22.63° Asphalt 0 ft / 0 m 0 ft / 0 m
03 148 ft / 45 m 7,559 ft / 2,304 m 21.34° 22.63° Asphalt 0 ft / 0 m 0 ft / 0 m
20 148 ft / 45 m 7,559 ft / 2,304 m 201.34° 202.63° Asphalt 0 ft / 0 m 0 ft / 0 m
21 148 ft / 45 m 7,559 ft / 2,304 m 201.34° 202.63° Asphalt 0 ft / 0 m 0 ft / 0 m

GMTT

Details ICAO GMTT (TNG)
Name IBN BATOUTA
Region Morocco
Timezone Africa/Casablanca (UTC+0.0)
Stats Elevation 62 ft / 19 m (AMSL)
Location 35.726911° -5.916900°
Runways 2
Magnetic Variation 1.239° W

METAR

GMTT 260300Z 10005KT 8000 FEW013 SCT016 13/12 Q1013 NOSIG

Decode

TAF

TAF GMTT 252300Z 2600/2706 10004KT 9999 SCT016 TEMPO 2602/2607 4000 BR BECMG 2609/2611 25012KT TEMPO 2702/2706 4000 BR

Decode

Destination Runways

ID Width Length Bearing (true) Bearing (mag) Surface Threshold Offset Overrun Length
07 98 ft / 30 m 6,555 ft / 1,998 m 69.91° 71.15° Asphalt 0 ft / 0 m 0 ft / 0 m
10 148 ft / 45 m 11,465 ft / 3,495 m 96.01° 97.25° Asphalt 0 ft / 0 m 197 ft / 60 m
25 98 ft / 30 m 6,555 ft / 1,998 m 249.92° 251.16° Asphalt 0 ft / 0 m 0 ft / 0 m
28 148 ft / 45 m 11,465 ft / 3,495 m 276.03° 277.27° Asphalt 1,640 ft / 500 m 197 ft / 60 m

Approach Navaids

Runway Type Ident Frequency Range Bearing (true) Bearing (mag) Slope Elevation
28 Localiser TAG 109.30 MHz 18 nm / 33 km 276.22° 277.46° - 62 ft / 19 m (AMSL)
28 Glidescope TAG 109.30 MHz 10 nm / 19 km 276.02° 277.26° 2.99° 52 ft / 16 m (AMSL)